sensor_id;sensor_type;location;lat;lon;timestamp;pressure;altitude;pressure_sealevel;temperature
24740;BMP280;45234;48.148;17.128;2023-05-07T00:01:45;100009.16;;;16.32
24740;BMP280;45234;48.148;17.128;2023-05-07T00:04:15;100004.59;;;16.28
24740;BMP280;45234;48.148;17.128;2023-05-07T00:06:45;100000.66;;;16.25
24740;BMP280;45234;48.148;17.128;2023-05-07T00:09:11;100012.34;;;16.22
24740;BMP280;45234;48.148;17.128;2023-05-07T00:11:39;100014.41;;;16.20
24740;BMP280;45234;48.148;17.128;2023-05-07T00:14:08;100007.28;;;16.16
24740;BMP280;45234;48.148;17.128;2023-05-07T00:16:36;100011.34;;;16.12
24740;BMP280;45234;48.148;17.128;2023-05-07T00:19:04;100020.69;;;16.08
24740;BMP280;45234;48.148;17.128;2023-05-07T00:21:31;100019.09;;;16.07
24740;BMP280;45234;48.148;17.128;2023-05-07T00:23:58;100003.91;;;16.04
24740;BMP280;45234;48.148;17.128;2023-05-07T00:26:25;100010.34;;;16.01
24740;BMP280;45234;48.148;17.128;2023-05-07T00:28:52;99997.75;;;15.98
24740;BMP280;45234;48.148;17.128;2023-05-07T00:31:19;100002.97;;;15.98
24740;BMP280;45234;48.148;17.128;2023-05-07T00:33:46;100004.00;;;15.97
24740;BMP280;45234;48.148;17.128;2023-05-07T00:36:13;100002.19;;;15.98
24740;BMP280;45234;48.148;17.128;2023-05-07T00:38:40;100002.41;;;15.96
24740;BMP280;45234;48.148;17.128;2023-05-07T00:41:07;99996.88;;;15.93
24740;BMP280;45234;48.148;17.128;2023-05-07T00:43:34;99996.88;;;15.93
24740;BMP280;45234;48.148;17.128;2023-05-07T00:46:01;99999.47;;;15.93
24740;BMP280;45234;48.148;17.128;2023-05-07T00:48:28;100003.69;;;15.94
24740;BMP280;45234;48.148;17.128;2023-05-07T00:50:57;100001.06;;;15.94
24740;BMP280;45234;48.148;17.128;2023-05-07T00:53:24;100006.53;;;15.92
24740;BMP280;45234;48.148;17.128;2023-05-07T00:55:51;100006.72;;;15.91
24740;BMP280;45234;48.148;17.128;2023-05-07T00:58:21;100004.03;;;15.85
24740;BMP280;45234;48.148;17.128;2023-05-07T01:00:48;100008.00;;;15.88
24740;BMP280;45234;48.148;17.128;2023-05-07T01:03:15;100008.13;;;15.81
24740;BMP280;45234;48.148;17.128;2023-05-07T01:05:44;100011.41;;;15.88
24740;BMP280;45234;48.148;17.128;2023-05-07T01:08:13;100010.25;;;15.84
24740;BMP280;45234;48.148;17.128;2023-05-07T01:10:41;100008.13;;;15.81
24740;BMP280;45234;48.148;17.128;2023-05-07T01:13:13;100009.91;;;15.81
24740;BMP280;45234;48.148;17.128;2023-05-07T01:15:42;100007.44;;;15.86
24740;BMP280;45234;48.148;17.128;2023-05-07T01:18:09;100008.22;;;15.86
24740;BMP280;45234;48.148;17.128;2023-05-07T01:20:36;100005.03;;;15.84
24740;BMP280;45234;48.148;17.128;2023-05-07T01:23:04;100002.31;;;15.79
24740;BMP280;45234;48.148;17.128;2023-05-07T01:25:32;99998.13;;;15.78
24740;BMP280;45234;48.148;17.128;2023-05-07T01:28:00;99998.34;;;15.77
24740;BMP280;45234;48.148;17.128;2023-05-07T01:30:32;99998.78;;;15.74
24740;BMP280;45234;48.148;17.128;2023-05-07T01:33:11;99999.38;;;15.64
24740;BMP280;45234;48.148;17.128;2023-05-07T01:35:43;99999.84;;;15.61
24740;BMP280;45234;48.148;17.128;2023-05-07T01:38:12;99997.44;;;15.60
24740;BMP280;45234;48.148;17.128;2023-05-07T01:40:40;99996.63;;;15.59
24740;BMP280;45234;48.148;17.128;2023-05-07T01:43:09;100004.38;;;15.54
24740;BMP280;45234;48.148;17.128;2023-05-07T01:45:37;100010.06;;;15.51
24740;BMP280;45234;48.148;17.128;2023-05-07T01:48:05;100009.38;;;15.44
24740;BMP280;45234;48.148;17.128;2023-05-07T01:50:33;100005.63;;;15.40
24740;BMP280;45234;48.148;17.128;2023-05-07T01:53:02;100000.50;;;15.45
24740;BMP280;45234;48.148;17.128;2023-05-07T01:55:29;100008.47;;;15.50
24740;BMP280;45234;48.148;17.128;2023-05-07T01:57:56;100016.19;;;15.45
24740;BMP280;45234;48.148;17.128;2023-05-07T02:00:23;100015.38;;;15.44
24740;BMP280;45234;48.148;17.128;2023-05-07T02:02:50;100006.53;;;15.45
24740;BMP280;45234;48.148;17.128;2023-05-07T02:05:27;100015.84;;;15.41
24740;BMP280;45234;48.148;17.128;2023-05-07T02:08:00;100013.88;;;15.37
24740;BMP280;45234;48.148;17.128;2023-05-07T02:10:28;100013.88;;;15.37
24740;BMP280;45234;48.148;17.128;2023-05-07T02:12:55;100021.16;;;15.35
24740;BMP280;45234;48.148;17.128;2023-05-07T02:15:23;100013.66;;;15.27
24740;BMP280;45234;48.148;17.128;2023-05-07T02:18:05;100018.63;;;15.17
24740;BMP280;45234;48.148;17.128;2023-05-07T02:20:37;100019.66;;;15.27
24740;BMP280;45234;48.148;17.128;2023-05-07T02:23:04;100023.66;;;15.30
24740;BMP280;45234;48.148;17.128;2023-05-07T02:25:32;100023.22;;;15.33
24740;BMP280;45234;48.148;17.128;2023-05-07T02:27:59;100022.41;;;15.32
24740;BMP280;45234;48.148;17.128;2023-05-07T02:30:39;100022.84;;;15.29
24740;BMP280;45234;48.148;17.128;2023-05-07T02:33:08;100021.47;;;15.27
24740;BMP280;45234;48.148;17.128;2023-05-07T02:35:38;100018.88;;;15.27
24740;BMP280;45234;48.148;17.128;2023-05-07T02:38:05;100018.06;;;15.26
24740;BMP280;45234;48.148;17.128;2023-05-07T02:40:33;100014.44;;;15.27
24740;BMP280;45234;48.148;17.128;2023-05-07T02:43:00;100023.22;;;15.33
24740;BMP280;45234;48.148;17.128;2023-05-07T02:45:28;100022.53;;;15.37
24740;BMP280;45234;48.148;17.128;2023-05-07T02:47:55;100019.59;;;15.45
24740;BMP280;45234;48.148;17.128;2023-05-07T02:50:22;100021.72;;;15.48
24740;BMP280;45234;48.148;17.128;2023-05-07T02:52:49;100025.75;;;15.51
24740;BMP280;45234;48.148;17.128;2023-05-07T02:55:16;100025.75;;;15.51
24740;BMP280;45234;48.148;17.128;2023-05-07T02:57:42;100024.94;;;15.50
24740;BMP280;45234;48.148;17.128;2023-05-07T03:00:14;100021.84;;;15.42
24740;BMP280;45234;48.148;17.128;2023-05-07T03:02:49;100024.81;;;15.34
24740;BMP280;45234;48.148;17.128;2023-05-07T03:05:16;100028.44;;;15.33
24740;BMP280;45234;48.148;17.128;2023-05-07T03:07:43;100028.66;;;15.31
24740;BMP280;45234;48.148;17.128;2023-05-07T03:10:13;100036.13;;;15.28
24740;BMP280;45234;48.148;17.128;2023-05-07T03:12:41;100031.34;;;15.25
24740;BMP280;45234;48.148;17.128;2023-05-07T03:15:11;100038.06;;;15.21
24740;BMP280;45234;48.148;17.128;2023-05-07T03:17:39;100032.69;;;15.15
24740;BMP280;45234;48.148;17.128;2023-05-07T03:20:07;100044.63;;;15.11
24740;BMP280;45234;48.148;17.128;2023-05-07T03:22:37;100040.59;;;14.97
24740;BMP280;45234;48.148;17.128;2023-05-07T03:25:04;100043.75;;;14.88
24740;BMP280;45234;48.148;17.128;2023-05-07T03:27:35;100036.31;;;14.85
24740;BMP280;45234;48.148;17.128;2023-05-07T03:30:04;100039.94;;;14.84
24740;BMP280;45234;48.148;17.128;2023-05-07T03:32:32;100048.03;;;14.82
24740;BMP280;45234;48.148;17.128;2023-05-07T03:34:59;100050.84;;;14.81
24740;BMP280;45234;48.148;17.128;2023-05-07T03:37:26;100045.84;;;14.79
24740;BMP280;45234;48.148;17.128;2023-05-07T03:39:53;100051.28;;;14.77
24740;BMP280;45234;48.148;17.128;2023-05-07T03:42:20;100051.28;;;14.77
24740;BMP280;45234;48.148;17.128;2023-05-07T03:44:50;100054.25;;;14.81
24740;BMP280;45234;48.148;17.128;2023-05-07T03:47:17;100059.00;;;14.84
24740;BMP280;45234;48.148;17.128;2023-05-07T03:49:45;100064.00;;;14.86
24740;BMP280;45234;48.148;17.128;2023-05-07T03:52:13;100062.81;;;14.88
24740;BMP280;45234;48.148;17.128;2023-05-07T03:54:40;100056.81;;;14.88
24740;BMP280;45234;48.148;17.128;2023-05-07T03:57:10;100060.75;;;14.90
24740;BMP280;45234;48.148;17.128;2023-05-07T03:59:38;100072.56;;;14.93
24740;BMP280;45234;48.148;17.128;2023-05-07T04:02:07;100069.59;;;14.89
24740;BMP280;45234;48.148;17.128;2023-05-07T04:04:34;100069.97;;;14.93
24740;BMP280;45234;48.148;17.128;2023-05-07T04:07:01;100070.75;;;14.93
24740;BMP280;45234;48.148;17.128;2023-05-07T04:09:29;100077.56;;;14.94
24740;BMP280;45234;48.148;17.128;2023-05-07T04:11:57;100077.13;;;14.97
24740;BMP280;45234;48.148;17.128;2023-05-07T04:14:23;100079.06;;;15.02
24740;BMP280;45234;48.148;17.128;2023-05-07T04:16:51;100082.03;;;15.05
24740;BMP280;45234;48.148;17.128;2023-05-07T04:19:18;100081.94;;;15.12
24740;BMP280;45234;48.148;17.128;2023-05-07T04:21:48;100081.28;;;15.17
24740;BMP280;45234;48.148;17.128;2023-05-07T04:24:15;100084.03;;;15.22
24740;BMP280;45234;48.148;17.128;2023-05-07T04:26:43;100088.47;;;15.21
24740;BMP280;45234;48.148;17.128;2023-05-07T04:29:10;100091.41;;;15.25
24740;BMP280;45234;48.148;17.128;2023-05-07T04:31:38;100091.78;;;15.28
24740;BMP280;45234;48.148;17.128;2023-05-07T04:34:05;100090.16;;;15.27
24740;BMP280;45234;48.148;17.128;2023-05-07T04:36:32;100094.81;;;15.25
24740;BMP280;45234;48.148;17.128;2023-05-07T04:39:03;100090.38;;;15.26
24740;BMP280;45234;48.148;17.128;2023-05-07T04:41:31;100090.38;;;15.26
24740;BMP280;45234;48.148;17.128;2023-05-07T04:44:00;100101.75;;;15.20
24740;BMP280;45234;48.148;17.128;2023-05-07T04:46:30;100105.22;;;15.13
24740;BMP280;45234;48.148;17.128;2023-05-07T04:48:57;100114.31;;;15.11
24740;BMP280;45234;48.148;17.128;2023-05-07T04:51:24;100111.13;;;15.09
24740;BMP280;45234;48.148;17.128;2023-05-07T04:53:52;100118.28;;;15.13
24740;BMP280;45234;48.148;17.128;2023-05-07T04:56:19;100124.81;;;15.23
24740;BMP280;45234;48.148;17.128;2023-05-07T04:58:47;100128.09;;;15.30
24740;BMP280;45234;48.148;17.128;2023-05-07T05:01:19;100138.38;;;15.43
24740;BMP280;45234;48.148;17.128;2023-05-07T05:03:46;100132.97;;;15.56
24740;BMP280;45234;48.148;17.128;2023-05-07T05:06:16;100138.34;;;15.73
24740;BMP280;45234;48.148;17.128;2023-05-07T05:08:43;100131.66;;;15.88
24740;BMP280;45234;48.148;17.128;2023-05-07T05:11:10;100138.69;;;16.00
24740;BMP280;45234;48.148;17.128;2023-05-07T05:13:39;100143.28;;;16.16
24740;BMP280;45234;48.148;17.128;2023-05-07T05:16:16;100137.19;;;16.39
24740;BMP280;45234;48.148;17.128;2023-05-07T05:18:46;100149.47;;;16.61
24740;BMP280;45234;48.148;17.128;2023-05-07T05:21:18;100146.53;;;16.98
24740;BMP280;45234;48.148;17.128;2023-05-07T05:23:48;100152.28;;;17.28
24740;BMP280;45234;48.148;17.128;2023-05-07T05:26:19;100155.09;;;17.39
24740;BMP280;45234;48.148;17.128;2023-05-07T05:28:48;100151.94;;;17.87
24740;BMP280;45234;48.148;17.128;2023-05-07T05:31:23;100150.19;;;19.28
24740;BMP280;45234;48.148;17.128;2023-05-07T05:33:51;100154.25;;;20.35
24740;BMP280;45234;48.148;17.128;2023-05-07T05:36:21;100163.63;;;21.29
24740;BMP280;45234;48.148;17.128;2023-05-07T05:38:56;100154.63;;;21.80
24740;BMP280;45234;48.148;17.128;2023-05-07T05:41:23;100162.94;;;22.13
24740;BMP280;45234;48.148;17.128;2023-05-07T05:43:53;100163.44;;;22.20
24740;BMP280;45234;48.148;17.128;2023-05-07T05:46:30;100169.28;;;22.17
24740;BMP280;45234;48.148;17.128;2023-05-07T05:48:58;100174.69;;;21.66
24740;BMP280;45234;48.148;17.128;2023-05-07T05:51:36;100180.25;;;21.14
24740;BMP280;45234;48.148;17.128;2023-05-07T05:54:02;100182.34;;;21.17
24740;BMP280;45234;48.148;17.128;2023-05-07T05:56:30;100175.22;;;21.53
24740;BMP280;45234;48.148;17.128;2023-05-07T05:58:57;100184.41;;;21.96
24740;BMP280;45234;48.148;17.128;2023-05-07T06:01:25;100186.88;;;22.31
24740;BMP280;45234;48.148;17.128;2023-05-07T06:03:55;100181.75;;;22.55
24740;BMP280;45234;48.148;17.128;2023-05-07T06:06:22;100177.63;;;22.83
24740;BMP280;45234;48.148;17.128;2023-05-07T06:08:49;100178.00;;;23.00
24740;BMP280;45234;48.148;17.128;2023-05-07T06:11:21;100180.28;;;23.17
24740;BMP280;45234;48.148;17.128;2023-05-07T06:13:49;100185.91;;;23.39
24740;BMP280;45234;48.148;17.128;2023-05-07T06:16:16;100186.38;;;23.46
24740;BMP280;45234;48.148;17.128;2023-05-07T06:18:45;100188.50;;;23.44
24740;BMP280;45234;48.148;17.128;2023-05-07T06:21:14;100188.13;;;23.27
24740;BMP280;45234;48.148;17.128;2023-05-07T06:23:42;100201.19;;;23.42
24740;BMP280;45234;48.148;17.128;2023-05-07T06:26:10;100203.72;;;23.57
24740;BMP280;45234;48.148;17.128;2023-05-07T06:28:40;100198.16;;;23.83
24740;BMP280;45234;48.148;17.128;2023-05-07T06:31:30;100202.53;;;24.16
24740;BMP280;45234;48.148;17.128;2023-05-07T06:34:05;100209.06;;;25.45
24740;BMP280;45234;48.148;17.128;2023-05-07T06:36:36;100201.84;;;26.36
24740;BMP280;45234;48.148;17.128;2023-05-07T06:39:12;100212.25;;;26.90
24740;BMP280;45234;48.148;17.128;2023-05-07T06:41:39;100208.84;;;27.21
24740;BMP280;45234;48.148;17.128;2023-05-07T06:44:14;100203.56;;;27.38
24740;BMP280;45234;48.148;17.128;2023-05-07T06:46:48;100205.69;;;27.18
24740;BMP280;45234;48.148;17.128;2023-05-07T06:49:20;100202.56;;;26.41
24740;BMP280;45234;48.148;17.128;2023-05-07T06:51:48;100220.34;;;25.91
24740;BMP280;45234;48.148;17.128;2023-05-07T06:54:15;100216.22;;;25.85
24740;BMP280;45234;48.148;17.128;2023-05-07T06:56:46;100206.69;;;25.57
24740;BMP280;45234;48.148;17.128;2023-05-07T06:59:13;100209.25;;;25.02
24740;BMP280;45234;48.148;17.128;2023-05-07T07:01:40;100211.59;;;24.71
24740;BMP280;45234;48.148;17.128;2023-05-07T07:04:09;100210.28;;;24.69
24740;BMP280;45234;48.148;17.128;2023-05-07T07:06:37;100216.28;;;25.25
24740;BMP280;45234;48.148;17.128;2023-05-07T07:09:08;100215.03;;;25.64
24740;BMP280;45234;48.148;17.128;2023-05-07T07:11:36;100216.00;;;25.95
24740;BMP280;45234;48.148;17.128;2023-05-07T07:14:04;100219.81;;;26.16
24740;BMP280;45234;48.148;17.128;2023-05-07T07:16:36;100223.72;;;26.33
24740;BMP280;45234;48.148;17.128;2023-05-07T07:19:03;100233.91;;;25.76
24740;BMP280;45234;48.148;17.128;2023-05-07T07:21:30;100228.78;;;24.74
24740;BMP280;45234;48.148;17.128;2023-05-07T07:23:57;100229.59;;;23.89
24740;BMP280;45234;48.148;17.128;2023-05-07T07:26:25;100234.81;;;23.70
24740;BMP280;45234;48.148;17.128;2023-05-07T07:28:52;100241.69;;;23.72
24740;BMP280;45234;48.148;17.128;2023-05-07T07:31:21;100235.09;;;23.69
24740;BMP280;45234;48.148;17.128;2023-05-07T07:33:49;100228.78;;;23.36
24740;BMP280;45234;48.148;17.128;2023-05-07T07:36:19;100233.34;;;23.83
24740;BMP280;45234;48.148;17.128;2023-05-07T07:38:49;100237.72;;;24.40
24740;BMP280;45234;48.148;17.128;2023-05-07T07:41:16;100235.38;;;24.15
24740;BMP280;45234;48.148;17.128;2023-05-07T07:43:43;100235.22;;;24.30
24740;BMP280;45234;48.148;17.128;2023-05-07T07:46:10;100243.66;;;24.70
24740;BMP280;45234;48.148;17.128;2023-05-07T07:48:37;100244.56;;;25.16
24740;BMP280;45234;48.148;17.128;2023-05-07T07:51:05;100249.72;;;25.54
24740;BMP280;45234;48.148;17.128;2023-05-07T07:53:33;100254.97;;;25.72
24740;BMP280;45234;48.148;17.128;2023-05-07T07:56:00;100249.75;;;25.95
24740;BMP280;45234;48.148;17.128;2023-05-07T07:58:33;100247.19;;;26.17
24740;BMP280;45234;48.148;17.128;2023-05-07T08:01:02;100250.94;;;26.52
24740;BMP280;45234;48.148;17.128;2023-05-07T08:03:29;100254.09;;;26.54
24740;BMP280;45234;48.148;17.128;2023-05-07T08:06:00;100251.91;;;26.06
24740;BMP280;45234;48.148;17.128;2023-05-07T08:08:31;100247.25;;;25.11
24740;BMP280;45234;48.148;17.128;2023-05-07T08:10:58;100257.47;;;25.04
24740;BMP280;45234;48.148;17.128;2023-05-07T08:13:30;100260.31;;;25.26
24740;BMP280;45234;48.148;17.128;2023-05-07T08:15:58;100261.13;;;25.40
24740;BMP280;45234;48.148;17.128;2023-05-07T08:18:25;100265.50;;;25.31
24740;BMP280;45234;48.148;17.128;2023-05-07T08:20:53;100276.78;;;25.56
24740;BMP280;45234;48.148;17.128;2023-05-07T08:23:24;100272.50;;;25.87
24740;BMP280;45234;48.148;17.128;2023-05-07T08:25:53;100271.94;;;26.53
24740;BMP280;45234;48.148;17.128;2023-05-07T08:28:20;100263.97;;;26.76
24740;BMP280;45234;48.148;17.128;2023-05-07T08:30:48;100264.81;;;26.62
24740;BMP280;45234;48.148;17.128;2023-05-07T08:33:19;100258.25;;;26.68
24740;BMP280;45234;48.148;17.128;2023-05-07T08:35:46;100265.81;;;26.53
24740;BMP280;45234;48.148;17.128;2023-05-07T08:38:14;100268.84;;;26.24
24740;BMP280;45234;48.148;17.128;2023-05-07T08:40:41;100258.53;;;25.68
24740;BMP280;45234;48.148;17.128;2023-05-07T08:43:14;100254.56;;;24.49
24740;BMP280;45234;48.148;17.128;2023-05-07T08:45:45;100252.31;;;24.94
24740;BMP280;45234;48.148;17.128;2023-05-07T08:48:17;100255.19;;;24.97
24740;BMP280;45234;48.148;17.128;2023-05-07T08:50:55;100253.69;;;25.56
24740;BMP280;45234;48.148;17.128;2023-05-07T08:53:22;100250.06;;;25.66
24740;BMP280;45234;48.148;17.128;2023-05-07T08:55:49;100255.13;;;25.35
24740;BMP280;45234;48.148;17.128;2023-05-07T08:58:17;100257.16;;;24.92
24740;BMP280;45234;48.148;17.128;2023-05-07T09:00:44;100250.91;;;24.64
24740;BMP280;45234;48.148;17.128;2023-05-07T09:03:14;100250.13;;;24.64
24740;BMP280;45234;48.148;17.128;2023-05-07T09:05:45;100246.75;;;24.77
24740;BMP280;45234;48.148;17.128;2023-05-07T09:08:15;100254.50;;;24.92
24740;BMP280;45234;48.148;17.128;2023-05-07T09:10:48;100246.56;;;25.24
24740;BMP280;45234;48.148;17.128;2023-05-07T09:13:16;100256.16;;;25.20
24740;BMP280;45234;48.148;17.128;2023-05-07T09:15:46;100248.75;;;24.85
24740;BMP280;45234;48.148;17.128;2023-05-07T09:18:13;100248.91;;;24.75
24740;BMP280;45234;48.148;17.128;2023-05-07T09:20:44;100241.25;;;24.92
24740;BMP280;45234;48.148;17.128;2023-05-07T09:23:11;100248.44;;;25.05
24740;BMP280;45234;48.148;17.128;2023-05-07T09:25:40;100241.09;;;25.34
24740;BMP280;45234;48.148;17.128;2023-05-07T09:28:14;100244.25;;;25.64
24740;BMP280;45234;48.148;17.128;2023-05-07T09:30:43;100239.59;;;25.42
24740;BMP280;45234;48.148;17.128;2023-05-07T09:33:14;100243.44;;;25.04
24740;BMP280;45234;48.148;17.128;2023-05-07T09:35:46;100244.03;;;24.44
24740;BMP280;45234;48.148;17.128;2023-05-07T09:38:18;100239.28;;;24.41
24740;BMP280;45234;48.148;17.128;2023-05-07T09:40:48;100237.72;;;24.17
24740;BMP280;45234;48.148;17.128;2023-05-07T09:43:32;100228.75;;;23.94
24740;BMP280;45234;48.148;17.128;2023-05-07T09:46:07;100225.03;;;23.95
24740;BMP280;45234;48.148;17.128;2023-05-07T09:48:38;100224.13;;;24.04
24740;BMP280;45234;48.148;17.128;2023-05-07T09:51:25;100228.16;;;24.21
24740;BMP280;45234;48.148;17.128;2023-05-07T09:53:57;100224.25;;;24.55
24740;BMP280;45234;48.148;17.128;2023-05-07T09:56:53;100218.75;;;24.33
24740;BMP280;45234;48.148;17.128;2023-05-07T09:59:25;100226.59;;;24.38
24740;BMP280;45234;48.148;17.128;2023-05-07T10:01:59;100234.22;;;24.64
24740;BMP280;45234;48.148;17.128;2023-05-07T10:04:31;100229.88;;;25.05
24740;BMP280;45234;48.148;17.128;2023-05-07T10:06:59;100232.53;;;25.05
24740;BMP280;45234;48.148;17.128;2023-05-07T10:09:27;100233.69;;;24.99
24740;BMP280;45234;48.148;17.128;2023-05-07T10:11:55;100227.97;;;24.92
24740;BMP280;45234;48.148;17.128;2023-05-07T10:14:22;100233.09;;;24.51
24740;BMP280;45234;48.148;17.128;2023-05-07T10:16:51;100224.38;;;24.03
24740;BMP280;45234;48.148;17.128;2023-05-07T10:19:23;100225.94;;;22.94
24740;BMP280;45234;48.148;17.128;2023-05-07T10:21:59;100219.00;;;23.03
24740;BMP280;45234;48.148;17.128;2023-05-07T10:24:37;100216.44;;;22.88
24740;BMP280;45234;48.148;17.128;2023-05-07T10:27:12;100208.16;;;22.60
24740;BMP280;45234;48.148;17.128;2023-05-07T10:32:49;100214.88;;;22.42
24740;BMP280;45234;48.148;17.128;2023-05-07T10:35:36;100211.34;;;22.57
24740;BMP280;45234;48.148;17.128;2023-05-07T10:38:06;100212.47;;;22.46
24740;BMP280;45234;48.148;17.128;2023-05-07T10:40:36;100214.34;;;22.40
24740;BMP280;45234;48.148;17.128;2023-05-07T10:43:06;100214.22;;;21.91
24740;BMP280;45234;48.148;17.128;2023-05-07T10:45:41;100210.75;;;22.11
24740;BMP280;45234;48.148;17.128;2023-05-07T10:48:16;100212.38;;;21.97
24740;BMP280;45234;48.148;17.128;2023-05-07T10:51:24;100217.56;;;22.22
24740;BMP280;45234;48.148;17.128;2023-05-07T10:56:48;100213.16;;;22.08
24740;BMP280;45234;48.148;17.128;2023-05-07T11:01:56;100211.91;;;21.59
24740;BMP280;45234;48.148;17.128;2023-05-07T11:04:36;100207.41;;;21.65
24740;BMP280;45234;48.148;17.128;2023-05-07T11:07:28;100207.69;;;21.53
24740;BMP280;45234;48.148;17.128;2023-05-07T11:10:04;100209.25;;;21.75
24740;BMP280;45234;48.148;17.128;2023-05-07T11:12:58;100217.19;;;21.59
24740;BMP280;45234;48.148;17.128;2023-05-07T11:15:40;100207.41;;;21.50
24740;BMP280;45234;48.148;17.128;2023-05-07T11:18:17;100207.41;;;21.70
24740;BMP280;45234;48.148;17.128;2023-05-07T11:20:57;100215.81;;;21.82
24740;BMP280;45234;48.148;17.128;2023-05-07T11:26:11;100209.19;;;21.95
24740;BMP280;45234;48.148;17.128;2023-05-07T11:28:45;100203.13;;;21.89
24740;BMP280;45234;48.148;17.128;2023-05-07T11:31:12;100209.91;;;22.21
24740;BMP280;45234;48.148;17.128;2023-05-07T11:33:40;100207.84;;;22.18
24740;BMP280;45234;48.148;17.128;2023-05-07T11:36:12;100195.22;;;21.84
24740;BMP280;45234;48.148;17.128;2023-05-07T11:38:44;100196.81;;;21.90
24740;BMP280;45234;48.148;17.128;2023-05-07T11:41:11;100204.19;;;21.98
24740;BMP280;45234;48.148;17.128;2023-05-07T11:43:38;100201.56;;;21.98
24740;BMP280;45234;48.148;17.128;2023-05-07T11:46:09;100195.75;;;21.96
24740;BMP280;45234;48.148;17.128;2023-05-07T11:48:36;100199.47;;;21.95
24740;BMP280;45234;48.148;17.128;2023-05-07T11:51:07;100201.03;;;21.91
24740;BMP280;45234;48.148;17.128;2023-05-07T11:53:40;100195.75;;;21.96
24740;BMP280;45234;48.148;17.128;2023-05-07T11:56:12;100197.31;;;21.92
24740;BMP280;45234;48.148;17.128;2023-05-07T11:58:41;100204.19;;;21.93
24740;BMP280;45234;48.148;17.128;2023-05-07T12:01:09;100208.94;;;21.91
24740;BMP280;45234;48.148;17.128;2023-05-07T12:03:39;100202.88;;;21.91
24740;BMP280;45234;48.148;17.128;2023-05-07T12:06:10;100206.34;;;21.66
24740;BMP280;45234;48.148;17.128;2023-05-07T12:08:40;100210.56;;;21.77
24740;BMP280;45234;48.148;17.128;2023-05-07T12:11:09;100209.50;;;21.78
24740;BMP280;45234;48.148;17.128;2023-05-07T12:13:37;100215.06;;;21.61
24740;BMP280;45234;48.148;17.128;2023-05-07T12:16:06;100208.75;;;21.47
24740;BMP280;45234;48.148;17.128;2023-05-07T12:18:34;100217.97;;;21.50
24740;BMP280;45234;48.148;17.128;2023-05-07T12:21:02;100208.97;;;21.41
24740;BMP280;45234;48.148;17.128;2023-05-07T12:23:30;100210.84;;;21.25
24740;BMP280;45234;48.148;17.128;2023-05-07T12:25:57;100209.28;;;21.24
24740;BMP280;45234;48.148;17.128;2023-05-07T12:28:25;100214.28;;;21.31
24740;BMP280;45234;48.148;17.128;2023-05-07T12:30:55;100218.50;;;21.37
24740;BMP280;45234;48.148;17.128;2023-05-07T12:33:26;100212.16;;;21.53
24740;BMP280;45234;48.148;17.128;2023-05-07T12:35:55;100217.44;;;21.63
24740;BMP280;45234;48.148;17.128;2023-05-07T12:38:23;100223.50;;;21.63
24740;BMP280;45234;48.148;17.128;2023-05-07T12:40:54;100224.81;;;21.41
24740;BMP280;45234;48.148;17.128;2023-05-07T12:43:25;100232.47;;;21.42
24740;BMP280;45234;48.148;17.128;2023-05-07T12:45:59;100224.28;;;21.18
24740;BMP280;45234;48.148;17.128;2023-05-07T12:48:26;100211.63;;;21.00
24740;BMP280;45234;48.148;17.128;2023-05-07T12:50:54;100210.00;;;20.89
24740;BMP280;45234;48.148;17.128;2023-05-07T12:53:26;100212.13;;;20.92
24740;BMP280;45234;48.148;17.128;2023-05-07T12:55:57;100213.72;;;21.03
24740;BMP280;45234;48.148;17.128;2023-05-07T12:58:26;100200.06;;;21.11
24740;BMP280;45234;48.148;17.128;2023-05-07T13:00:55;100216.91;;;21.15
24740;BMP280;45234;48.148;17.128;2023-05-07T13:03:31;100212.41;;;21.06
24740;BMP280;45234;48.148;17.128;2023-05-07T13:06:04;100199.72;;;20.98
24740;BMP280;45234;48.148;17.128;2023-05-07T13:08:33;100191.53;;;20.89
24740;BMP280;45234;48.148;17.128;2023-05-07T13:11:02;100191.03;;;20.82
24740;BMP280;45234;48.148;17.128;2023-05-07T13:13:31;100199.47;;;20.99
24740;BMP280;45234;48.148;17.128;2023-05-07T13:15:59;100200.28;;;21.05
24740;BMP280;45234;48.148;17.128;2023-05-07T13:18:28;100192.06;;;20.86
24740;BMP280;45234;48.148;17.128;2023-05-07T13:20:56;100195.25;;;20.83
24740;BMP280;45234;48.148;17.128;2023-05-07T13:23:23;100194.72;;;20.81
24740;BMP280;45234;48.148;17.128;2023-05-07T13:25:50;100191.75;;;20.67
24740;BMP280;45234;48.148;17.128;2023-05-07T13:28:17;100195.75;;;20.85
24740;BMP280;45234;48.148;17.128;2023-05-07T13:30:44;100193.91;;;20.86
24740;BMP280;45234;48.148;17.128;2023-05-07T13:33:11;100197.84;;;20.78
24740;BMP280;45234;48.148;17.128;2023-05-07T13:35:38;100189.94;;;20.73
24740;BMP280;45234;48.148;17.128;2023-05-07T13:38:05;100182.56;;;20.70
24740;BMP280;45234;48.148;17.128;2023-05-07T13:40:32;100189.44;;;20.81
24740;BMP280;45234;48.148;17.128;2023-05-07T13:42:59;100191.28;;;20.86
24740;BMP280;45234;48.148;17.128;2023-05-07T13:45:29;100191.81;;;20.93
24740;BMP280;45234;48.148;17.128;2023-05-07T13:47:56;100188.41;;;20.97
24740;BMP280;45234;48.148;17.128;2023-05-07T13:50:23;100188.97;;;21.14
24740;BMP280;45234;48.148;17.128;2023-05-07T13:52:51;100190.50;;;20.85
24740;BMP280;45234;48.148;17.128;2023-05-07T13:55:18;100191.28;;;20.80
24740;BMP280;45234;48.148;17.128;2023-05-07T13:57:46;100198.94;;;20.82
24740;BMP280;45234;48.148;17.128;2023-05-07T14:00:14;100195.22;;;20.88
24740;BMP280;45234;48.148;17.128;2023-05-07T14:02:43;100205.75;;;20.78
24740;BMP280;45234;48.148;17.128;2023-05-07T14:05:10;100202.84;;;20.69
24740;BMP280;45234;48.148;17.128;2023-05-07T14:07:37;100204.97;;;20.77
24740;BMP280;45234;48.148;17.128;2023-05-07T14:10:05;100197.09;;;20.82